Time;durP1;ratioP1;P1;durP2;ratioP2;P2;SDS_P1;SDS_P2;PMS_P1;PMS_P2;Temp;Humidity;BMP_temperature;BMP_pressure;BME280_temperature;BME280_humidity;BME280_pressure;Samples;Min_cycle;Max_cycle;Signal;HPM_P1;HPM_P2
2022/11/11 00:00:22;;;;;;;14.47;8.07;;;6.40;1.80;;;;;;5049990;28;20176;-75
2022/11/11 00:02:48;;;;;;;18.73;9.67;;;6.30;4.50;;;;;;5049661;28;20173;-75
2022/11/11 00:05:14;;;;;;;12.57;6.97;;;6.30;6.50;;;;;;5045730;28;20459;-75
2022/11/11 00:07:40;;;;;;;13.63;8.17;;;6.30;1.70;;;;;;5047965;28;20435;-75
2022/11/11 00:10:06;;;;;;;23.90;11.40;;;6.30;1.00;;;;;;5050752;28;20942;-75
2022/11/11 00:12:32;;;;;;;20.90;10.60;;;6.20;2.20;;;;;;5049927;28;20204;-75
2022/11/11 00:14:57;;;;;;;15.53;8.80;;;6.00;4.90;;;;;;5048055;28;20448;-75
2022/11/11 00:25:37;;;;;;;14.83;7.57;;;6.10;7.50;;;;;;5050240;28;20870;-75
2022/11/11 00:28:03;;;;;;;15.13;8.03;;;6.10;1.80;;;;;;5049580;28;20452;-75
2022/11/11 00:30:29;;;;;;;15.60;7.83;;;6.00;2.30;;;;;;5049996;28;20177;-75
2022/11/11 00:32:54;;;;;;;10.60;6.73;;;6.00;4.20;;;;;;5049629;28;20351;-75
2022/11/11 00:38:09;;;;;;;13.83;7.10;;;6.00;5.30;;;;;;5038993;28;20256;-75
2022/11/11 00:40:35;;;;;;;11.50;7.40;;;6.00;6.10;;;;;;5039798;28;20916;-75
2022/11/11 00:43:00;;;;;;;12.73;7.47;;;6.00;5.80;;;;;;5049606;28;20509;-75
2022/11/11 00:45:26;;;;;;;15.30;6.90;;;6.00;4.10;;;;;;5048163;28;20180;-75
2022/11/11 00:53:22;;;;;;;15.43;7.67;;;5.90;3.70;;;;;;5049675;28;20438;-75
2022/11/11 00:55:48;;;;;;;18.13;7.30;;;5.90;4.70;;;;;;5049267;28;20396;-75
2022/11/11 00:58:15;;;;;;;11.07;6.43;;;5.90;4.00;;;;;;5028044;28;20424;-74
2022/11/11 01:00:41;;;;;;;10.43;6.20;;;5.80;4.40;;;;;;5042015;28;20199;-75
2022/11/11 01:03:07;;;;;;;11.03;6.53;;;5.80;2.40;;;;;;5043761;28;20437;-75
2022/11/11 01:05:32;;;;;;;10.10;6.40;;;5.70;1.80;;;;;;5031561;28;20436;-75
2022/11/11 01:07:58;;;;;;;10.07;5.53;;;5.70;1.00;;;;;;5048892;28;20189;-75
2022/11/11 01:10:40;;;;;;;15.07;6.70;;;5.70;1.00;;;;;;5049052;28;20254;-75
2022/11/11 01:13:27;;;;;;;8.60;5.80;;;5.60;3.70;;;;;;5029227;28;20727;-75
2022/11/11 01:16:02;;;;;;;9.33;5.80;;;5.60;5.10;;;;;;5029351;28;20504;-75
2022/11/11 01:18:28;;;;;;;10.77;5.97;;;5.60;6.20;;;;;;5049089;28;20919;-75
2022/11/11 01:20:58;;;;;;;10.00;6.00;;;5.60;7.30;;;;;;5042588;28;20427;-75
2022/11/11 01:23:24;;;;;;;8.53;6.23;;;5.60;9.00;;;;;;5049181;28;20200;-75
2022/11/11 01:25:51;;;;;;;9.90;6.20;;;5.60;5.20;;;;;;5049301;28;20419;-75
2022/11/11 01:28:17;;;;;;;8.37;6.10;;;5.60;3.10;;;;;;5048964;28;20169;-75
2022/11/11 01:30:42;;;;;;;14.40;6.90;;;5.60;3.00;;;;;;5040770;28;20439;-75
2022/11/11 01:33:09;;;;;;;10.70;5.77;;;5.60;2.30;;;;;;5028802;28;20213;-75
2022/11/11 01:35:40;;;;;;;9.80;6.00;;;5.60;2.50;;;;;;5037269;28;20177;-75
2022/11/11 01:38:07;;;;;;;9.60;5.80;;;5.60;1.80;;;;;;5048780;28;20407;-75
2022/11/11 01:40:44;;;;;;;9.93;5.60;;;5.60;1.00;;;;;;5035500;28;20428;-75
2022/11/11 01:43:09;;;;;;;11.00;6.27;;;5.60;1.10;;;;;;5028347;28;20467;-75
2022/11/11 01:45:45;;;;;;;11.60;6.50;;;5.60;1.80;;;;;;5029296;28;20440;-75
2022/11/11 01:51:09;;;;;;;11.80;6.10;;;5.60;2.70;;;;;;5050946;28;20979;-76
2022/11/11 01:53:35;;;;;;;10.10;6.40;;;5.60;7.90;;;;;;5053037;28;20431;-75
2022/11/11 01:56:01;;;;;;;10.17;5.70;;;5.70;5.50;;;;;;5053139;28;20752;-75
2022/11/11 01:58:28;;;;;;;13.20;6.50;;;5.60;4.20;;;;;;5052812;28;20177;-75
2022/11/11 02:00:56;;;;;;;9.30;5.80;;;5.60;5.60;;;;;;5051780;28;20936;-74
2022/11/11 02:03:25;;;;;;;12.50;6.13;;;5.60;7.60;;;;;;5051663;28;20991;-76
2022/11/11 02:05:54;;;;;;;12.87;6.93;;;5.60;6.90;;;;;;5035632;28;20416;-75
2022/11/11 02:08:33;;;;;;;10.83;6.73;;;5.60;6.00;;;;;;5041860;28;20434;-75
2022/11/11 02:11:04;;;;;;;9.00;5.87;;;5.50;3.70;;;;;;5052351;28;20415;-75
2022/11/11 02:16:14;;;;;;;13.87;5.93;;;5.40;4.40;;;;;;5049780;28;20829;-75
2022/11/11 02:18:41;;;;;;;10.27;6.10;;;5.50;6.20;;;;;;5051442;28;20423;-75
2022/11/11 02:21:11;;;;;;;7.90;5.40;;;5.50;2.60;;;;;;5046043;28;20181;-75
2022/11/11 02:24:06;;;;;;;10.50;6.20;;;5.40;2.50;;;;;;5032399;28;20498;-75
2022/11/11 02:26:35;;;;;;;5.60;5.00;;;5.40;1.30;;;;;;5049303;28;20759;-75
2022/11/11 02:29:02;;;;;;;9.77;5.67;;;5.30;1.00;;;;;;5032241;28;20491;-75
2022/11/11 02:31:31;;;;;;;7.10;5.33;;;5.30;1.00;;;;;;5032178;28;20848;-75
2022/11/11 02:33:57;;;;;;;12.30;5.90;;;5.30;1.00;;;;;;5032040;28;20432;-75
2022/11/11 02:36:22;;;;;;;6.60;5.67;;;5.30;1.00;;;;;;5048929;28;20411;-74
2022/11/11 02:38:49;;;;;;;12.17;5.13;;;5.20;1.00;;;;;;5043208;28;20182;-74
2022/11/11 02:43:58;;;;;;;6.87;5.13;;;5.20;1.00;;;;;;5051976;28;20434;-75
2022/11/11 02:46:24;;;;;;;11.20;5.60;;;5.20;1.00;;;;;;5048096;28;20794;-75
2022/11/11 02:48:50;;;;;;;9.50;5.10;;;5.10;1.60;;;;;;5051431;28;20298;-75
2022/11/11 02:51:15;;;;;;;8.93;5.90;;;5.10;1.00;;;;;;5051448;28;20239;-75
2022/11/11 02:53:40;;;;;;;12.33;5.87;;;5.10;1.00;;;;;;5051241;28;20189;-75
2022/11/11 02:56:06;;;;;;;11.50;5.60;;;5.10;1.00;;;;;;5040414;28;20190;-75
2022/11/11 02:58:32;;;;;;;8.17;5.13;;;5.10;1.00;;;;;;5031478;28;20178;-75
2022/11/11 03:00:58;;;;;;;13.67;5.80;;;5.00;1.00;;;;;;5030232;28;20169;-75
2022/11/11 03:03:23;;;;;;;7.90;5.90;;;4.90;1.00;;;;;;5036957;28;20190;-75
2022/11/11 03:05:49;;;;;;;11.50;5.83;;;4.80;3.90;;;;;;5031930;28;20268;-75
2022/11/11 03:08:14;;;;;;;13.83;6.13;;;4.80;6.50;;;;;;5032871;28;20556;-75
2022/11/11 03:10:40;;;;;;;11.10;5.90;;;4.80;8.40;;;;;;5032009;28;20700;-75
2022/11/11 03:13:05;;;;;;;17.17;6.40;;;4.80;7.10;;;;;;5033327;28;20210;-75
2022/11/11 03:15:31;;;;;;;12.70;6.30;;;4.90;7.00;;;;;;5038274;28;20766;-75
2022/11/11 03:17:56;;;;;;;7.17;5.10;;;4.90;6.70;;;;;;5047888;28;20188;-76
2022/11/11 03:23:08;;;;;;;9.70;6.50;;;5.00;7.40;;;;;;5031042;28;20255;-75
2022/11/11 03:25:38;;;;;;;10.40;5.57;;;5.00;4.20;;;;;;5031563;28;20432;-75
2022/11/11 03:28:11;;;;;;;9.90;5.77;;;4.90;2.80;;;;;;5031409;28;20432;-75
2022/11/11 03:30:38;;;;;;;11.50;5.37;;;4.90;4.30;;;;;;5033175;28;20510;-75
2022/11/11 03:33:04;;;;;;;7.93;5.30;;;4.90;4.20;;;;;;5030964;28;20464;-75
2022/11/11 03:35:30;;;;;;;7.50;5.50;;;4.90;3.30;;;;;;5031278;28;20470;-75
2022/11/11 03:40:40;;;;;;;10.30;5.50;;;4.90;2.80;;;;;;5048277;28;20184;-75
2022/11/11 03:43:05;;;;;;;6.80;5.13;;;4.90;2.60;;;;;;5050408;28;20423;-76
2022/11/11 03:45:31;;;;;;;9.37;5.77;;;4.90;1.00;;;;;;5049425;28;20611;-75
2022/11/11 03:47:57;;;;;;;8.47;5.30;;;4.90;1.80;;;;;;5043031;28;20264;-75
2022/11/11 03:50:23;;;;;;;9.77;5.63;;;4.90;3.60;;;;;;5050203;28;20598;-75
2022/11/11 03:52:48;;;;;;;9.87;5.17;;;5.00;1.00;;;;;;5049120;28;20546;-75
2022/11/11 03:55:14;;;;;;;7.27;5.23;;;5.00;1.00;;;;;;5051226;28;20165;-75
2022/11/11 03:57:44;;;;;;;7.50;5.17;;;5.00;1.00;;;;;;5050597;28;20180;-75
2022/11/11 04:00:14;;;;;;;9.30;4.90;;;4.90;1.00;;;;;;5037738;28;20653;-75
2022/11/11 04:11:06;;;;;;;7.93;5.40;;;4.90;4.50;;;;;;5030440;28;20996;-75
2022/11/11 04:16:16;;;;;;;10.80;6.37;;;5.00;1.00;;;;;;5030785;28;20419;-75
2022/11/11 04:21:45;;;;;;;17.07;7.47;;;5.30;1.00;;;;;;5036119;28;20183;-76
2022/11/11 04:27:02;;;;;;;12.10;6.90;;;5.40;1.00;;;;;;5030202;28;20415;-75
2022/11/11 04:29:29;;;;;;;28.40;7.57;;;5.40;4.30;;;;;;5036415;28;20801;-75
2022/11/11 04:34:57;;;;;;;68.23;9.23;;;5.50;8.20;;;;;;5050017;28;20462;-75
2022/11/11 04:37:25;;;;;;;108.03;9.43;;;5.60;9.50;;;;;;5043513;28;20454;-75
2022/11/11 04:42:36;;;;;;;36.27;8.20;;;;;;;;;;5029952;28;20416;-75
2022/11/11 04:48:01;;;;;;;56.90;8.00;;;5.60;20.00;;;;;;5042741;28;20478;-76
2022/11/11 04:50:35;;;;;;;38.63;7.80;;;5.70;15.10;;;;;;5049661;28;20408;-75
2022/11/11 04:53:03;;;;;;;30.43;7.10;;;5.70;15.40;;;;;;5049600;28;20455;-75
2022/11/11 04:58:13;;;;;;;19.17;6.60;;;5.60;11.30;;;;;;5029465;28;20961;-76
2022/11/11 05:00:38;;;;;;;15.30;6.63;;;5.60;10.90;;;;;;5029813;28;20397;-75
2022/11/11 05:03:23;;;;;;;31.53;7.80;;;5.60;8.60;;;;;;5029309;28;20927;-75
2022/11/11 05:08:55;;;;;;;16.90;6.87;;;5.60;7.50;;;;;;5029879;28;20830;-75
2022/11/11 05:11:24;;;;;;;13.70;6.63;;;5.60;8.30;;;;;;5034088;28;20458;-75
2022/11/11 05:22:29;;;;;;;33.83;9.40;;;5.70;14.40;;;;;;5048523;28;20407;-76
2022/11/11 05:27:39;;;;;;;52.33;10.00;;;5.70;14.20;;;;;;5049863;28;20506;-75
2022/11/11 05:30:06;;;;;;;71.57;8.17;;;5.70;14.70;;;;;;5029911;28;20417;-75
2022/11/11 05:32:32;;;;;;;53.67;8.17;;;5.80;16.30;;;;;;5028486;28;20459;-75
2022/11/11 05:34:58;;;;;;;104.10;9.83;;;5.80;16.10;;;;;;5032571;28;20440;-75
2022/11/11 05:37:23;;;;;;;138.90;9.87;;;5.80;20.70;;;;;;5029886;28;20269;-75
2022/11/11 05:39:49;;;;;;;207.07;11.37;;;5.80;19.40;;;;;;5033324;28;20172;-75
2022/11/11 05:42:15;;;;;;;94.40;9.10;;;5.80;20.70;;;;;;5041679;28;20208;-75
2022/11/11 05:44:41;;;;;;;84.00;9.17;;;5.80;21.70;;;;;;5048406;28;20596;-75
2022/11/11 05:47:07;;;;;;;85.13;9.57;;;5.70;21.70;;;;;;5041783;28;20189;-75
2022/11/11 05:49:32;;;;;;;76.70;8.00;;;5.80;24.10;;;;;;5047417;28;20411;-75
2022/11/11 05:51:58;;;;;;;111.30;9.80;;;5.60;25.80;;;;;;5047934;28;21050;-75
2022/11/11 05:54:24;;;;;;;29.77;7.90;;;5.50;27.20;;;;;;5049315;28;20192;-75
2022/11/11 05:56:50;;;;;;;30.80;7.07;;;5.50;28.60;;;;;;5049014;28;20226;-75
2022/11/11 05:59:15;;;;;;;41.53;7.27;;;5.50;35.00;;;;;;5047354;28;20918;-75
2022/11/11 06:01:41;;;;;;;36.33;7.07;;;5.40;35.10;;;;;;5047056;28;20188;-75
2022/11/11 06:04:07;;;;;;;24.50;6.40;;;5.40;35.10;;;;;;5036819;28;20279;-75
2022/11/11 06:06:34;;;;;;;19.63;6.40;;;5.40;35.10;;;;;;5039284;28;20256;-75
2022/11/11 06:08:59;;;;;;;20.40;7.10;;;5.40;35.00;;;;;;5036483;28;20712;-76
2022/11/11 06:11:26;;;;;;;10.27;5.80;;;5.40;27.90;;;;;;5028445;28;20200;-75
2022/11/11 06:13:53;;;;;;;11.20;6.27;;;5.30;29.40;;;;;;5028943;28;20182;-77
2022/11/11 06:16:18;;;;;;;7.73;5.87;;;5.30;35.20;;;;;;5031860;28;20562;-78
2022/11/11 06:18:44;;;;;;;7.47;5.17;;;5.50;43.50;;;;;;5048158;28;20499;-77
2022/11/11 06:21:10;;;;;;;5.93;5.07;;;5.70;47.10;;;;;;5045456;28;20681;-76
2022/11/11 06:23:35;;;;;;;9.97;5.97;;;5.50;35.20;;;;;;5049071;28;20218;-76
2022/11/11 06:26:13;;;;;;;10.30;5.60;;;5.40;35.00;;;;;;5048697;28;20178;-77
2022/11/11 06:28:43;;;;;;;7.00;5.40;;;5.30;34.60;;;;;;5047457;28;20185;-76
2022/11/11 06:31:12;;;;;;;7.60;5.60;;;5.30;31.20;;;;;;5048081;28;20427;-76
2022/11/11 06:33:38;;;;;;;7.83;5.90;;;5.30;29.30;;;;;;5050175;28;20518;-76
2022/11/11 06:36:05;;;;;;;9.57;5.70;;;5.20;35.20;;;;;;5044569;28;20534;-76
2022/11/11 06:38:31;;;;;;;7.80;5.80;;;5.30;35.10;;;;;;5048831;28;20411;-76
2022/11/11 06:40:57;;;;;;;7.60;5.00;;;5.30;35.10;;;;;;5052890;28;20413;-76
2022/11/11 06:43:23;;;;;;;12.23;4.97;;;5.40;35.00;;;;;;5050311;28;20672;-76
2022/11/11 06:45:50;;;;;;;8.10;4.67;;;5.30;34.70;;;;;;5052841;28;20180;-76
2022/11/11 06:48:15;;;;;;;8.70;5.33;;;5.40;35.20;;;;;;5052080;28;20442;-76
2022/11/11 06:50:41;;;;;;;10.60;5.30;;;5.40;29.30;;;;;;5052306;28;20415;-76
2022/11/11 06:53:09;;;;;;;6.80;5.00;;;5.40;32.10;;;;;;5049367;28;20209;-76
2022/11/11 06:55:35;;;;;;;7.03;5.00;;;5.40;29.50;;;;;;5049265;28;20559;-76
2022/11/11 06:58:05;;;;;;;8.33;5.17;;;5.50;29.00;;;;;;5034653;28;20437;-76
2022/11/11 07:00:31;;;;;;;9.37;6.07;;;5.50;26.50;;;;;;5038656;28;20174;-76
2022/11/11 07:02:56;;;;;;;28.80;16.30;;;5.60;34.40;;;;;;5051374;28;20837;-76
2022/11/11 07:05:22;;;;;;;16.20;10.17;;;5.60;32.10;;;;;;5051624;28;20416;-76
2022/11/11 07:07:47;;;;;;;25.30;17.30;;;5.60;30.10;;;;;;5041028;28;20185;-76
2022/11/11 07:10:14;;;;;;;20.23;10.87;;;5.60;35.40;;;;;;5035844;28;20200;-76
2022/11/11 07:12:41;;;;;;;12.27;9.90;;;5.60;33.20;;;;;;5034932;28;20201;-76
2022/11/11 07:15:07;;;;;;;9.50;5.63;;;5.60;35.50;;;;;;5034400;28;21044;-76
2022/11/11 07:17:32;;;;;;;7.23;5.30;;;5.70;35.30;;;;;;5046116;28;20477;-76
2022/11/11 07:19:58;;;;;;;5.70;4.70;;;5.70;35.20;;;;;;5049424;28;20424;-76
2022/11/11 07:22:24;;;;;;;7.53;4.87;;;5.70;35.20;;;;;;5051860;28;20173;-77
2022/11/11 07:24:49;;;;;;;8.77;4.90;;;5.80;31.90;;;;;;5049564;28;20219;-76
2022/11/11 07:27:15;;;;;;;5.47;4.10;;;5.90;28.80;;;;;;5046719;28;20946;-77
2022/11/11 07:29:40;;;;;;;9.23;4.60;;;6.00;28.60;;;;;;5052009;28;20601;-76
2022/11/11 07:32:06;;;;;;;9.83;5.00;;;6.10;27.00;;;;;;5039758;28;20199;-76
2022/11/11 07:34:31;;;;;;;6.93;4.97;;;6.10;25.40;;;;;;5046995;28;20197;-76
2022/11/11 07:36:57;;;;;;;7.23;5.70;;;6.30;27.50;;;;;;5047939;28;20181;-77
2022/11/11 07:39:22;;;;;;;7.67;5.00;;;6.30;26.40;;;;;;5048442;28;20174;-76
2022/11/11 07:41:48;;;;;;;8.50;5.73;;;6.50;26.70;;;;;;5049525;28;20227;-77
2022/11/11 07:44:13;;;;;;;10.17;6.20;;;6.60;25.70;;;;;;5045159;28;20208;-76
2022/11/11 07:46:39;;;;;;;11.00;6.57;;;6.90;23.40;;;;;;5037255;28;20180;-76
2022/11/11 07:49:04;;;;;;;13.83;6.00;;;7.10;23.80;;;;;;5048247;28;20242;-76
2022/11/11 07:51:30;;;;;;;9.83;6.20;;;7.30;19.80;;;;;;5049724;28;20413;-77
2022/11/11 07:53:56;;;;;;;11.47;6.50;;;7.50;16.00;;;;;;5044562;28;20559;-76
2022/11/11 07:56:21;;;;;;;11.47;6.33;;;7.70;15.40;;;;;;5042342;28;20188;-76
2022/11/11 07:58:47;;;;;;;9.27;6.80;;;8.00;13.50;;;;;;5048504;28;20208;-76
2022/11/11 08:01:12;;;;;;;16.80;6.87;;;8.20;11.60;;;;;;5032663;28;20656;-76
2022/11/11 08:03:48;;;;;;;13.60;7.43;;;8.40;6.80;;;;;;5047185;28;20201;-76
2022/11/11 08:06:18;;;;;;;17.57;7.57;;;8.40;6.10;;;;;;5051148;28;20161;-76
2022/11/11 08:08:43;;;;;;;16.83;8.50;;;8.30;8.60;;;;;;5049154;28;20415;-77
2022/11/11 08:11:09;;;;;;;17.00;8.90;;;8.40;9.10;;;;;;5034659;28;20420;-76
2022/11/11 08:13:40;;;;;;;11.30;7.53;;;8.50;10.50;;;;;;5041290;28;20621;-76
2022/11/11 08:16:13;;;;;;;13.30;9.10;;;8.80;6.90;;;;;;5045743;28;20178;-76
2022/11/11 08:18:39;;;;;;;18.30;9.40;;;8.90;7.20;;;;;;5049283;28;20507;-76
2022/11/11 08:21:06;;;;;;;17.10;9.37;;;9.10;6.30;;;;;;5049581;28;20531;-76
2022/11/11 08:23:32;;;;;;;19.47;10.30;;;9.10;1.00;;;;;;5050755;28;20419;-76
2022/11/11 08:26:02;;;;;;;27.53;11.13;;;9.30;3.50;;;;;;5050451;28;20996;-76
2022/11/11 08:28:29;;;;;;;22.97;13.13;;;9.30;1.00;;;;;;5049982;28;20431;-76
2022/11/11 08:30:57;;;;;;;20.57;11.17;;;9.30;1.00;;;;;;5049921;28;20415;-76
2022/11/11 08:33:22;;;;;;;25.03;12.10;;;9.40;1.00;;;;;;5036973;28;20459;-76
2022/11/11 08:35:48;;;;;;;18.60;9.93;;;9.50;1.00;;;;;;5035310;28;20794;-76
2022/11/11 08:38:14;;;;;;;17.97;9.17;;;9.70;1.00;;;;;;5050766;28;20599;-76
2022/11/11 08:40:40;;;;;;;15.30;9.70;;;9.60;1.00;;;;;;5048412;28;20515;-76
2022/11/11 08:43:05;;;;;;;15.30;9.00;;;9.80;1.00;;;;;;5041311;28;20196;-76
2022/11/11 08:45:31;;;;;;;16.80;9.30;;;10.00;1.00;;;;;;5036225;28;20220;-76
2022/11/11 08:47:56;;;;;;;12.40;7.90;;;10.10;1.00;;;;;;5036822;28;20568;-76
2022/11/11 08:50:22;;;;;;;13.83;8.57;;;10.20;1.00;;;;;;5049420;28;20224;-76
2022/11/11 08:52:50;;;;;;;14.20;8.83;;;10.10;1.00;;;;;;5049979;28;20211;-76
2022/11/11 08:55:15;;;;;;;15.90;8.40;;;10.10;1.00;;;;;;5043916;28;20172;-76
2022/11/11 08:57:41;;;;;;;12.07;7.87;;;10.10;1.00;;;;;;5036370;28;20502;-76
2022/11/11 09:00:08;;;;;;;12.03;7.63;;;10.20;1.00;;;;;;5048143;28;20336;-76
2022/11/11 09:02:34;;;;;;;11.23;8.00;;;10.40;1.00;;;;;;5034994;28;20166;-75
2022/11/11 09:04:59;;;;;;;12.97;7.30;;;10.70;1.00;;;;;;5049747;28;21019;-76
2022/11/11 09:07:25;;;;;;;12.27;6.60;;;11.00;1.00;;;;;;5046829;28;20415;-76
2022/11/11 09:09:50;;;;;;;11.20;7.87;;;11.40;1.00;;;;;;5050070;28;20176;-76
2022/11/11 09:12:16;;;;;;;11.23;6.97;;;11.60;1.00;;;;;;5049695;28;20197;-76
2022/11/11 09:14:41;;;;;;;13.70;8.57;;;11.80;1.00;;;;;;5046424;28;20221;-76
2022/11/11 09:17:07;;;;;;;9.40;6.80;;;11.80;1.00;;;;;;5040823;28;20264;-76
2022/11/11 09:19:32;;;;;;;13.03;7.10;;;11.80;1.00;;;;;;5049093;28;20180;-76
2022/11/11 09:21:58;;;;;;;8.67;6.00;;;12.20;1.00;;;;;;5049604;28;20180;-76
2022/11/11 09:24:23;;;;;;;11.00;6.30;;;12.90;1.00;;;;;;5049651;28;20216;-76
2022/11/11 09:26:50;;;;;;;9.43;5.90;;;13.70;1.00;;;;;;5042487;28;20174;-76
2022/11/11 09:29:16;;;;;;;10.43;6.60;;;14.60;1.00;;;;;;5029536;28;20691;-76
2022/11/11 09:31:42;;;;;;;11.30;7.20;;;15.50;1.00;;;;;;5040184;28;20451;-76
2022/11/11 09:34:07;;;;;;;10.40;6.40;;;16.40;1.00;;;;;;5047562;28;21018;-76
2022/11/11 09:36:33;;;;;;;12.20;7.53;;;17.40;1.00;;;;;;5043217;28;20189;-76
2022/11/11 09:38:59;;;;;;;11.10;7.83;;;17.80;1.00;;;;;;5031312;28;20170;-76
2022/11/11 09:41:47;;;;;;;10.17;7.60;;;18.00;1.00;;;;;;5048238;28;20643;-76
2022/11/11 09:44:35;;;;;;;13.27;9.83;;;18.40;1.00;;;;;;5029694;28;20478;-76
2022/11/11 09:47:20;;;;;;;12.27;8.43;;;18.30;1.00;;;;;;5010184;28;20421;-76
2022/11/11 09:49:49;;;;;;;11.27;7.60;;;18.40;1.00;;;;;;5048340;28;20960;-76
2022/11/11 09:52:19;;;;;;;15.43;8.00;;;18.30;1.00;;;;;;5032307;28;20507;-76
2022/11/11 09:55:11;;;;;;;11.07;7.90;;;18.50;1.00;;;;;;5030698;28;20825;-76
2022/11/11 09:57:50;;;;;;;13.20;8.00;;;19.60;1.00;;;;;;5030765;28;20800;-76
2022/11/11 10:00:20;;;;;;;10.87;7.47;;;20.30;1.00;;;;;;5036622;28;20412;-76
2022/11/11 10:02:58;;;;;;;12.03;8.00;;;20.20;1.00;;;;;;5029203;28;20401;-76
2022/11/11 10:05:33;;;;;;;10.70;7.60;;;20.20;1.00;;;;;;5039672;28;20458;-76
2022/11/11 10:08:28;;;;;;;13.80;8.20;;;20.30;1.00;;;;;;5049774;28;20415;-76
2022/11/11 10:10:57;;;;;;;11.63;7.77;;;20.10;1.00;;;;;;5052913;28;20422;-76
2022/11/11 10:13:29;;;;;;;12.03;8.17;;;20.60;1.00;;;;;;5051930;28;20474;-76
2022/11/11 10:16:19;;;;;;;13.30;8.53;;;21.30;1.00;;;;;;5051418;28;20417;-76
2022/11/11 10:19:06;;;;;;;14.90;8.50;;;21.80;1.00;;;;;;5047638;28;20505;-76
2022/11/11 10:21:40;;;;;;;14.67;7.83;;;22.60;1.00;;;;;;5052626;28;20453;-76
2022/11/11 10:24:13;;;;;;;10.63;8.23;;;24.30;1.00;;;;;;5053230;28;20437;-76
2022/11/11 10:26:41;;;;;;;10.37;8.00;;;25.50;1.00;;;;;;5052848;28;20407;-76
2022/11/11 10:29:18;;;;;;;11.40;8.60;;;25.30;1.00;;;;;;5034986;28;20744;-76
2022/11/11 10:32:01;;;;;;;15.80;8.13;;;23.80;1.00;;;;;;5050969;28;20462;-76
2022/11/11 10:34:32;;;;;;;16.33;7.97;;;24.10;1.00;;;;;;5052197;28;20924;-76
2022/11/11 10:36:58;;;;;;;9.40;7.00;;;25.50;1.00;;;;;;5052331;28;20409;-76
2022/11/11 10:39:33;;;;;;;11.40;8.20;;;25.80;1.00;;;;;;5051888;28;20520;-76
2022/11/11 10:41:58;;;;;;;11.27;8.10;;;25.00;1.00;;;;;;5034358;28;20426;-76
2022/11/11 10:44:30;;;;;;;9.30;7.50;;;23.80;1.00;;;;;;5050933;28;20995;-76
2022/11/11 10:47:09;;;;;;;10.73;7.23;;;23.00;1.00;;;;;;5053876;28;20534;-77
2022/11/11 10:49:41;;;;;;;11.30;7.53;;;22.80;1.00;;;;;;5047812;28;20414;-76
2022/11/11 10:52:15;;;;;;;12.67;7.40;;;23.80;1.00;;;;;;5037230;28;20447;-76
2022/11/11 10:55:04;;;;;;;12.37;8.57;;;24.60;1.00;;;;;;5032579;28;20424;-77
2022/11/11 10:57:49;;;;;;;11.43;8.00;;;24.40;1.00;;;;;;5024624;28;20439;-76
2022/11/11 11:00:15;;;;;;;8.57;6.90;;;24.80;1.00;;;;;;5032262;28;20416;-77
2022/11/11 11:02:53;;;;;;;9.97;7.00;;;25.90;1.00;;;;;;5031752;28;20551;-76
2022/11/11 11:05:33;;;;;;;11.03;7.87;;;26.00;1.00;;;;;;5032403;28;20566;-76
2022/11/11 11:08:13;;;;;;;10.00;7.83;;;26.00;1.00;;;;;;5041155;28;20426;-77
2022/11/11 11:10:46;;;;;;;10.23;7.83;;;26.10;1.00;;;;;;5035968;28;20842;-77
2022/11/11 11:13:37;;;;;;;12.43;7.97;;;26.20;1.00;;;;;;5031213;28;20566;-76
2022/11/11 11:16:07;;;;;;;12.70;8.60;;;26.40;1.00;;;;;;5042214;28;20431;-76
2022/11/11 11:18:33;;;;;;;11.43;7.80;;;25.80;1.00;;;;;;5051040;28;20411;-76
2022/11/11 11:21:01;;;;;;;12.90;7.50;;;26.00;1.00;;;;;;5046931;28;20441;-77
2022/11/11 11:23:42;;;;;;;14.30;9.67;;;26.30;1.00;;;;;;5048524;28;20205;-77
2022/11/11 11:26:09;;;;;;;13.20;8.40;;;25.70;1.00;;;;;;5039737;28;20435;-76
2022/11/11 11:28:52;;;;;;;13.27;8.03;;;24.40;1.00;;;;;;5040937;28;20442;-77
2022/11/11 11:31:35;;;;;;;11.70;8.20;;;24.10;1.00;;;;;;5040916;28;20492;-78
2022/11/11 11:34:00;;;;;;;9.67;7.60;;;24.40;1.00;;;;;;5042832;28;21016;-79
2022/11/11 11:36:26;;;;;;;14.47;8.50;;;24.90;1.00;;;;;;5046252;28;20434;-79
2022/11/11 11:38:51;;;;;;;11.17;7.80;;;25.10;1.00;;;;;;5050564;28;20181;-77
2022/11/11 11:41:34;;;;;;;14.20;9.10;;;25.20;1.00;;;;;;5040210;28;20201;-78
2022/11/11 11:43:59;;;;;;;11.63;8.40;;;25.10;1.00;;;;;;5041384;28;20208;-78
2022/11/11 11:46:38;;;;;;;11.80;8.40;;;26.00;1.00;;;;;;5042557;28;20427;-77
2022/11/11 11:49:37;;;;;;;11.77;8.20;;;27.20;1.00;;;;;;5047591;28;20260;-78
2022/11/11 11:52:16;;;;;;;11.10;7.93;;;28.00;1.00;;;;;;5040365;28;20462;-79
2022/11/11 11:55:00;;;;;;;9.67;8.10;;;28.40;1.00;;;;;;5045429;28;20435;-79
2022/11/11 11:57:45;;;;;;;11.70;7.50;;;28.00;1.00;;;;;;5039769;28;20195;-81
2022/11/11 12:00:24;;;;;;;15.07;7.80;;;29.10;1.00;;;;;;5047311;28;20181;-81
2022/11/11 12:03:01;;;;;;;12.47;7.73;;;30.40;1.00;;;;;;5038412;28;20654;-81
2022/11/11 12:05:33;;;;;;;12.53;8.13;;;30.40;1.00;;;;;;5049103;28;20185;-81
2022/11/11 12:08:33;;;;;;;14.52;8.32;;;30.90;1.00;;;;;;5050438;28;20187;-81
2022/11/11 12:11:22;;;;;;;11.30;7.30;;;30.10;1.00;;;;;;5039418;28;20195;-80
2022/11/11 12:14:19;;;;;;;7.30;6.23;;;30.40;1.00;;;;;;5038031;28;20671;-80
2022/11/11 12:16:57;;;;;;;7.40;6.20;;;31.30;1.00;;;;;;5035407;28;20187;-79
2022/11/11 12:19:41;;;;;;;8.55;6.55;;;31.80;1.00;;;;;;5050366;28;20181;-80
2022/11/11 12:22:43;;;;;;;9.57;7.30;;;30.90;1.00;;;;;;5030991;28;20212;-80
2022/11/11 12:25:57;;;;;;;8.57;6.95;;;30.30;1.00;;;;;;5031329;28;20168;-79
2022/11/11 12:28:22;;;;;;;8.80;6.68;;;31.00;1.00;;;;;;4993955;28;20202;-79
2022/11/11 12:30:57;;;;;;;8.23;6.15;;;31.00;1.00;;;;;;5049206;28;20243;-79
2022/11/11 12:33:56;;;;;;;9.82;7.03;;;30.70;1.00;;;;;;5045827;28;20396;-79
2022/11/11 12:36:30;;;;;;;9.88;7.40;;;30.50;1.00;;;;;;5045203;28;20319;-79
2022/11/11 12:39:00;;;;;;;9.90;8.23;;;30.10;1.00;;;;;;5048528;28;20183;-79
2022/11/11 12:41:40;;;;;;;12.43;8.60;;;29.00;1.00;;;;;;5035856;28;20611;-79
2022/11/11 12:44:08;;;;;;;13.00;8.13;;;28.00;1.00;;;;;;5030335;28;20193;-79
2022/11/11 12:46:52;;;;;;;11.93;8.30;;;27.80;1.00;;;;;;5044435;28;20173;-78
2022/11/11 12:49:51;;;;;;;12.23;8.50;;;27.10;1.00;;;;;;5047816;28;20242;-78
2022/11/11 12:52:40;;;;;;;10.27;7.90;;;25.60;1.00;;;;;;5044794;28;20320;-80
2022/11/11 12:55:39;;;;;;;14.87;8.40;;;25.00;1.00;;;;;;5048801;28;20906;-79
2022/11/11 12:58:10;;;;;;;13.33;9.10;;;23.80;1.00;;;;;;5031774;28;20412;-78
2022/11/11 13:00:50;;;;;;;16.33;9.97;;;22.60;1.00;;;;;;5031201;28;20503;-79
2022/11/11 13:03:48;;;;;;;15.73;10.40;;;21.50;1.00;;;;;;5030159;28;20424;-79
2022/11/11 13:06:42;;;;;;;15.23;9.17;;;20.50;1.00;;;;;;5018271;28;20416;-78
2022/11/11 13:09:37;;;;;;;15.87;10.07;;;19.80;1.00;;;;;;5030810;28;20428;-79
2022/11/11 13:12:24;;;;;;;17.17;10.33;;;19.20;1.00;;;;;;5031711;28;20989;-78
2022/11/11 13:15:02;;;;;;;18.13;10.47;;;18.60;1.00;;;;;;5046590;28;20973;-79
2022/11/11 13:17:29;;;;;;;16.33;9.80;;;18.30;1.00;;;;;;5049317;28;20891;-78
2022/11/11 13:19:58;;;;;;;14.63;10.40;;;17.70;1.00;;;;;;5045898;28;20427;-78
2022/11/11 13:22:25;;;;;;;21.33;12.50;;;17.30;1.00;;;;;;5038046;28;20509;-79
2022/11/11 13:24:53;;;;;;;19.17;13.10;;;16.90;1.00;;;;;;5038815;28;20436;-79
2022/11/11 13:27:50;;;;;;;18.47;14.00;;;16.80;1.00;;;;;;5032299;28;20822;-77
2022/11/11 13:30:27;;;;;;;19.80;13.37;;;16.40;1.00;;;;;;5029520;28;20420;-78
2022/11/11 13:33:00;;;;;;;18.90;12.90;;;16.40;1.00;;;;;;5029493;28;20448;-77
2022/11/11 13:35:39;;;;;;;18.80;13.03;;;16.40;1.00;;;;;;5030832;28;20495;-78
2022/11/11 13:38:06;;;;;;;18.47;13.60;;;16.50;1.00;;;;;;5031046;28;20428;-78
2022/11/11 13:40:39;;;;;;;22.70;12.50;;;16.20;1.00;;;;;;5042136;28;20825;-77
2022/11/11 13:43:14;;;;;;;17.90;12.00;;;16.00;1.00;;;;;;5046284;28;20783;-77
2022/11/11 13:45:42;;;;;;;22.53;14.90;;;15.90;1.00;;;;;;5048538;28;20427;-77
2022/11/11 13:48:28;;;;;;;26.50;15.03;;;15.90;1.00;;;;;;5054365;28;20534;-78
2022/11/11 13:51:11;;;;;;;20.30;14.47;;;15.90;1.00;;;;;;5048520;28;20462;-77
2022/11/11 13:53:38;;;;;;;19.57;14.80;;;16.00;1.00;;;;;;5050450;28;20520;-77
2022/11/11 13:56:06;;;;;;;17.53;13.00;;;16.10;1.00;;;;;;5054674;28;20395;-81
2022/11/11 13:58:36;;;;;;;23.83;15.63;;;16.10;1.00;;;;;;5044687;28;20670;-78
2022/11/11 14:01:05;;;;;;;20.70;15.07;;;16.10;1.00;;;;;;5033988;28;20443;-79
2022/11/11 14:03:58;;;;;;;19.83;15.30;;;15.80;1.00;;;;;;5033269;28;20460;-78
2022/11/11 14:06:26;;;;;;;20.30;15.07;;;15.50;1.00;;;;;;5048614;28;20441;-78
2022/11/11 14:08:53;;;;;;;23.87;16.10;;;15.40;1.00;;;;;;5044430;28;20424;-77
2022/11/11 14:11:25;;;;;;;23.30;15.77;;;15.00;1.00;;;;;;5051270;28;20429;-77
2022/11/11 14:13:52;;;;;;;24.87;15.60;;;14.60;1.00;;;;;;5033213;28;20466;-77
2022/11/11 14:16:36;;;;;;;25.90;15.43;;;14.50;1.00;;;;;;5046371;28;20430;-77
2022/11/11 14:19:19;;;;;;;28.47;18.33;;;14.20;1.00;;;;;;5052152;28;20416;-77
2022/11/11 14:21:53;;;;;;;34.93;18.50;;;13.90;1.00;;;;;;5051265;28;20420;-77
2022/11/11 14:24:30;;;;;;;30.30;19.00;;;13.60;1.00;;;;;;5033095;28;20497;-76